Weather at City of Geneseo Heliport

Public forecast

Using degrees Fahrenheit for public forecast. Weather courtesy of forecast.io.

Closest aviation weather report (METAR) to City of Geneseo Heliport

Closest report is Quad City International Airport, 15.8 nm (29.3 km) W. Retrieved 2021/08/02 10:52 UTC (1 hour ago):

KMLI 021052Z 00000KT 9SM FU CLR 13/12 A3017 RMK AO2 SLP214 T01330117

Closest aviation forecast (TAF) to City of Geneseo Heliport

Closest forecast is Quad City International Airport, 15.8 nm (29.3 km) W. Retrieved 2021/08/02 06:22 UTC (6 hours ago):

TAF KMLI 020520Z 0206/0306 VRB05KT P6SM SCT250 FM021500 36005KT P6SM SCT050